createdAt,value
2019-01-04T00:00:47.233Z,1028.27
2019-01-04T00:01:47.247Z,1028.32
2019-01-04T00:02:47.294Z,1028.33
2019-01-04T00:03:47.262Z,1028.35
2019-01-04T00:04:47.275Z,1028.35
2019-01-04T00:05:47.288Z,1028.34
2019-01-04T00:06:47.289Z,1028.31
2019-01-04T00:07:47.302Z,1028.31
2019-01-04T00:08:47.315Z,1028.28
2019-01-04T00:09:47.329Z,1028.33
2019-01-04T00:10:47.330Z,1028.32
2019-01-04T00:11:47.342Z,1028.27
2019-01-04T00:12:47.357Z,1028.29
2019-01-04T00:13:47.357Z,1028.28
2019-01-04T00:14:47.372Z,1028.30
2019-01-04T00:15:47.384Z,1028.30
2019-01-04T00:16:47.385Z,1028.22
2019-01-04T00:17:47.412Z,1028.22
2019-01-04T00:18:48.140Z,1028.22
2019-01-04T00:19:47.425Z,1028.20
2019-01-04T00:20:47.426Z,1028.19
2019-01-04T00:21:47.439Z,1028.22
2019-01-04T00:22:47.453Z,1028.21
2019-01-04T00:23:47.467Z,1028.21
2019-01-04T00:24:47.467Z,1028.20
2019-01-04T00:25:47.480Z,1028.23
2019-01-04T00:26:47.482Z,1028.20
2019-01-04T00:27:47.495Z,1028.20
2019-01-04T00:28:47.507Z,1028.23
2019-01-04T00:29:47.521Z,1028.23
2019-01-04T00:30:47.523Z,1028.25
2019-01-04T00:31:47.537Z,1028.22
2019-01-04T00:32:47.550Z,1028.22
2019-01-04T00:33:47.550Z,1028.20
2019-01-04T00:34:47.563Z,1028.23
2019-01-04T00:35:47.583Z,1028.21
2019-01-04T00:36:47.591Z,1028.19
2019-01-04T00:37:47.592Z,1028.19
2019-01-04T00:38:47.606Z,1028.16
2019-01-04T00:39:47.618Z,1028.13
2019-01-04T00:40:47.619Z,1028.15
2019-01-04T00:41:47.633Z,1028.17
2019-01-04T00:42:47.645Z,1028.20
2019-01-04T00:43:47.659Z,1028.20
2019-01-04T00:44:47.660Z,1028.18
2019-01-04T00:45:47.676Z,1028.18
2019-01-04T00:46:47.687Z,1028.22
2019-01-04T00:47:47.700Z,1028.19
2019-01-04T00:48:47.701Z,1028.13
2019-01-04T00:49:47.716Z,1028.11
2019-01-04T00:50:47.727Z,1028.14
2019-01-04T00:51:47.728Z,1028.08
2019-01-04T00:52:47.742Z,1028.05
2019-01-04T00:53:47.755Z,1028.06
2019-01-04T00:54:47.771Z,1028.09
2019-01-04T00:55:47.771Z,1028.10
2019-01-04T00:56:47.783Z,1028.10
2019-01-04T00:57:47.797Z,1028.06
2019-01-04T00:58:47.809Z,1028.06
2019-01-04T00:59:47.810Z,1028.07
2019-01-04T01:00:47.824Z,1028.08
2019-01-04T01:01:47.837Z,1028.10
2019-01-04T01:02:47.840Z,1028.11
2019-01-04T01:03:47.853Z,1028.09
2019-01-04T01:04:47.865Z,1028.11
2019-01-04T01:05:47.879Z,1028.12
2019-01-04T01:06:47.880Z,1028.08
2019-01-04T01:07:47.892Z,1028.06
2019-01-04T01:08:47.909Z,1028.08
2019-01-04T01:09:47.932Z,1028.06
2019-01-04T01:10:47.921Z,1028.05
2019-01-04T01:11:47.935Z,1028.05
2019-01-04T01:12:47.947Z,1028.03
2019-01-04T01:13:47.962Z,1028.09
2019-01-04T01:14:47.964Z,1028.10
2019-01-04T01:15:47.975Z,1028.11
2019-01-04T01:16:47.988Z,1028.14
2019-01-04T01:17:48.001Z,1028.17
2019-01-04T01:18:48.002Z,1028.13
2019-01-04T01:19:48.018Z,1028.16
2019-01-04T01:20:48.029Z,1028.19
2019-01-04T01:21:48.043Z,1028.19
2019-01-04T01:22:48.045Z,1028.22
2019-01-04T01:23:48.056Z,1028.22
2019-01-04T01:24:48.071Z,1028.20
2019-01-04T01:25:48.084Z,1028.19
2019-01-04T01:26:48.084Z,1028.14
2019-01-04T01:27:48.098Z,1028.18
2019-01-04T01:28:48.111Z,1028.18
2019-01-04T01:29:48.125Z,1028.16
2019-01-04T01:30:48.129Z,1028.16
2019-01-04T01:31:48.151Z,1028.15
2019-01-04T01:32:48.152Z,1028.15
2019-01-04T01:33:48.165Z,1028.13
2019-01-04T01:34:48.167Z,1028.11
2019-01-04T01:35:48.180Z,1028.13
2019-01-04T01:36:48.194Z,1028.14
2019-01-04T01:37:48.207Z,1028.16
2019-01-04T01:38:48.209Z,1028.18
2019-01-04T01:39:48.221Z,1028.14
2019-01-04T01:40:48.238Z,1028.12
2019-01-04T01:41:48.247Z,1028.15
2019-01-04T01:42:48.249Z,1028.12
2019-01-04T01:43:48.262Z,1028.06
2019-01-04T01:44:48.275Z,1028.04
2019-01-04T01:45:48.291Z,1028.02
2019-01-04T01:46:48.291Z,1028.01
2019-01-04T01:47:48.306Z,1028.03
2019-01-04T01:48:48.322Z,1028.03
2019-01-04T01:49:48.330Z,1027.96
2019-01-04T01:50:48.330Z,1027.93
2019-01-04T01:51:48.352Z,1027.95
2019-01-04T01:52:48.357Z,1027.97
2019-01-04T01:53:48.371Z,1027.99
2019-01-04T01:54:48.372Z,1028.00
2019-01-04T01:55:48.398Z,1027.99
2019-01-04T01:56:48.399Z,1027.95
2019-01-04T01:57:48.412Z,1027.92
2019-01-04T01:58:48.414Z,1027.88
2019-01-04T01:59:48.427Z,1027.83
2019-01-04T02:00:48.439Z,1027.80
2019-01-04T02:01:48.454Z,1027.76
2019-01-04T02:02:48.455Z,1027.83
2019-01-04T02:03:48.466Z,1027.81
2019-01-04T02:04:48.481Z,1027.81
2019-01-04T02:05:48.493Z,1027.80
2019-01-04T02:06:48.499Z,1027.83
2019-01-04T02:07:48.508Z,1027.79
2019-01-04T02:08:48.521Z,1027.81
2019-01-04T02:09:48.537Z,1027.83
2019-01-04T02:10:48.554Z,1027.84
2019-01-04T02:11:48.549Z,1027.82
2019-01-04T02:12:48.563Z,1027.82
2019-01-04T02:13:48.576Z,1027.83
2019-01-04T02:14:48.590Z,1027.78
2019-01-04T02:15:48.590Z,1027.81
2019-01-04T02:16:48.604Z,1027.80
2019-01-04T02:17:48.619Z,1027.79
2019-01-04T02:18:48.629Z,1027.78
2019-01-04T02:19:48.630Z,1027.76
2019-01-04T02:20:48.653Z,1027.70
2019-01-04T02:21:48.657Z,1027.67
2019-01-04T02:22:48.673Z,1027.66
2019-01-04T02:23:48.673Z,1027.63
2019-01-04T02:24:48.698Z,1027.67
2019-01-04T02:25:48.701Z,1027.67
2019-01-04T02:26:48.711Z,1027.62
2019-01-04T02:27:48.713Z,1027.57
2019-01-04T02:28:48.727Z,1027.59
2019-01-04T02:29:48.739Z,1027.59
2019-01-04T02:30:48.753Z,1027.54
2019-01-04T02:31:48.772Z,1027.58
2019-01-04T02:32:48.767Z,1027.58
2019-01-04T02:33:48.783Z,1027.59
2019-01-04T02:34:48.806Z,1027.61
2019-01-04T02:35:48.807Z,1027.57
2019-01-04T02:36:48.809Z,1027.55
2019-01-04T02:37:48.826Z,1027.54
2019-01-04T02:38:48.836Z,1027.58
2019-01-04T02:39:48.855Z,1027.51
2019-01-04T02:40:48.850Z,1027.48
2019-01-04T02:41:48.863Z,1027.49
2019-01-04T02:42:48.875Z,1027.49
2019-01-04T02:43:48.895Z,1027.44
2019-01-04T02:44:48.894Z,1027.43
2019-01-04T02:45:48.903Z,1027.40
2019-01-04T02:46:48.925Z,1027.38
2019-01-04T02:47:48.930Z,1027.42
2019-01-04T02:48:48.931Z,1027.38
2019-01-04T02:49:48.945Z,1027.33
2019-01-04T02:50:48.961Z,1027.34
2019-01-04T02:51:48.976Z,1027.31
2019-01-04T02:52:48.973Z,1027.28
2019-01-04T02:53:48.986Z,1027.21
2019-01-04T02:54:49.001Z,1027.24
2019-01-04T02:55:49.011Z,1027.22
2019-01-04T02:56:49.018Z,1027.24
2019-01-04T02:57:49.027Z,1027.19
2019-01-04T02:58:49.052Z,1027.21
2019-01-04T02:59:49.053Z,1027.20
2019-01-04T03:00:49.059Z,1027.18
2019-01-04T03:01:49.067Z,1027.14
2019-01-04T03:02:49.082Z,1027.12
2019-01-04T03:03:49.094Z,1027.18
2019-01-04T03:04:49.095Z,1027.15
2019-01-04T03:05:49.109Z,1027.12
2019-01-04T03:06:49.122Z,1027.16
2019-01-04T03:07:49.136Z,1027.18
2019-01-04T03:08:49.136Z,1027.15
2019-01-04T03:09:49.153Z,1027.16
2019-01-04T03:10:49.163Z,1027.15
2019-01-04T03:11:49.177Z,1027.16
2019-01-04T03:12:49.181Z,1027.15
2019-01-04T03:13:49.192Z,1027.16
2019-01-04T03:14:49.203Z,1027.09
2019-01-04T03:15:49.218Z,1027.05
2019-01-04T03:16:49.222Z,1027.07
2019-01-04T03:17:49.234Z,1027.01
2019-01-04T03:18:49.249Z,1026.99
2019-01-04T03:19:49.262Z,1027.01
2019-01-04T03:20:49.261Z,1027.00
2019-01-04T03:21:49.273Z,1027.01
2019-01-04T03:22:49.285Z,1026.94
2019-01-04T03:23:49.299Z,1026.97
2019-01-04T03:24:49.313Z,1026.89
2019-01-04T03:25:49.314Z,1026.88
2019-01-04T03:26:49.327Z,1026.83
2019-01-04T03:27:49.339Z,1026.82
2019-01-04T03:28:49.354Z,1026.81
2019-01-04T03:29:49.355Z,1026.78
2019-01-04T03:30:49.378Z,1026.78
2019-01-04T03:31:49.385Z,1026.76
2019-01-04T03:32:49.396Z,1026.73
2019-01-04T03:33:49.397Z,1026.71
2019-01-04T03:34:49.411Z,1026.67
2019-01-04T03:35:49.421Z,1026.70
2019-01-04T03:36:49.437Z,1026.69
2019-01-04T03:37:49.438Z,1026.65
2019-01-04T03:38:49.462Z,1026.64
2019-01-04T03:39:49.463Z,1026.61
2019-01-04T03:40:49.481Z,1026.63
2019-01-04T03:41:49.479Z,1026.59
2019-01-04T03:42:49.493Z,1026.55
2019-01-04T03:43:49.503Z,1026.57
2019-01-04T03:44:49.518Z,1026.54
2019-01-04T03:45:49.534Z,1026.52
2019-01-04T03:46:49.531Z,1026.51
2019-01-04T03:47:49.548Z,1026.49
2019-01-04T03:48:49.558Z,1026.46
2019-01-04T03:49:49.572Z,1026.42
2019-01-04T03:50:49.572Z,1026.42
2019-01-04T03:51:49.586Z,1026.39
2019-01-04T03:52:49.599Z,1026.36
2019-01-04T03:53:49.612Z,1026.37
2019-01-04T03:54:49.612Z,1026.28
2019-01-04T03:55:49.626Z,1026.26
2019-01-04T03:56:49.639Z,1026.24
2019-01-04T03:57:49.653Z,1026.26
2019-01-04T03:58:49.656Z,1026.23
2019-01-04T03:59:49.666Z,1026.15
2019-01-04T04:00:49.683Z,1026.14
2019-01-04T04:01:49.695Z,1026.16
2019-01-04T04:02:49.708Z,1026.13
2019-01-04T04:03:49.811Z,1026.16
2019-01-04T04:04:49.721Z,1026.17
2019-01-04T04:05:49.735Z,1026.16
2019-01-04T04:06:49.748Z,1026.16
2019-01-04T04:07:49.749Z,1026.12
2019-01-04T04:08:49.762Z,1026.13
2019-01-04T04:09:49.775Z,1026.16
2019-01-04T04:10:49.790Z,1026.15
2019-01-04T04:11:49.803Z,1026.13
2019-01-04T04:12:49.802Z,1026.12
2019-01-04T04:13:49.816Z,1026.08
2019-01-04T04:14:49.833Z,1026.08
2019-01-04T04:15:49.845Z,1026.03
2019-01-04T04:16:49.844Z,1026.01
2019-01-04T04:17:49.858Z,1025.99
2019-01-04T04:18:49.871Z,1025.95
2019-01-04T04:19:49.887Z,1025.96
2019-01-04T04:20:49.886Z,1025.99
2019-01-04T04:21:49.901Z,1025.90
2019-01-04T04:22:49.912Z,1025.88
2019-01-04T04:23:49.925Z,1025.92
2019-01-04T04:24:50.020Z,1025.91
2019-01-04T04:25:49.942Z,1025.93
2019-01-04T04:26:49.953Z,1025.87
2019-01-04T04:27:49.966Z,1025.92
2019-01-04T04:28:49.980Z,1025.89
2019-01-04T04:29:49.982Z,1025.86
2019-01-04T04:30:49.993Z,1025.89
2019-01-04T04:31:50.016Z,1025.93
2019-01-04T04:32:50.020Z,1025.90
2019-01-04T04:33:50.022Z,1025.90
2019-01-04T04:34:50.035Z,1025.94
2019-01-04T04:35:50.047Z,1025.98
2019-01-04T04:36:50.061Z,1025.96
2019-01-04T04:37:50.074Z,1025.95
2019-01-04T04:38:50.079Z,1025.95
2019-01-04T04:39:50.089Z,1025.95
2019-01-04T04:40:50.116Z,1026.02
2019-01-04T04:41:50.115Z,1026.02
2019-01-04T04:42:50.118Z,1026.05
2019-01-04T04:43:50.129Z,1026.00
2019-01-04T04:44:50.144Z,1026.00
2019-01-04T04:45:50.157Z,1025.96
2019-01-04T04:46:50.170Z,1025.88
2019-01-04T04:47:50.171Z,1025.85
2019-01-04T04:48:50.185Z,1025.79
2019-01-04T04:49:50.199Z,1025.80
2019-01-04T04:50:50.210Z,1025.81
2019-01-04T04:51:50.215Z,1025.85
2019-01-04T04:52:50.226Z,1025.82
2019-01-04T04:53:50.271Z,1025.82
2019-01-04T04:54:50.254Z,1025.81
2019-01-04T04:55:50.264Z,1025.81
2019-01-04T04:56:50.267Z,1025.78
2019-01-04T04:57:50.280Z,1025.79
2019-01-04T04:58:50.291Z,1025.77
2019-01-04T04:59:50.305Z,1025.79
2019-01-04T05:00:50.404Z,1025.78
2019-01-04T05:01:50.319Z,1025.75
2019-01-04T05:02:50.334Z,1025.75
2019-01-04T05:03:50.347Z,1025.74
2019-01-04T05:04:50.360Z,1025.76
2019-01-04T05:05:50.363Z,1025.80
2019-01-04T05:06:50.373Z,1025.77
2019-01-04T05:07:50.388Z,1025.75
2019-01-04T05:08:50.390Z,1025.72
2019-01-04T05:09:50.403Z,1025.68
2019-01-04T05:10:50.418Z,1025.70
2019-01-04T05:11:50.428Z,1025.70
2019-01-04T05:12:50.442Z,1025.74
2019-01-04T05:13:50.445Z,1025.66
2019-01-04T05:14:50.460Z,1025.69
2019-01-04T05:15:50.470Z,1025.67
2019-01-04T05:16:50.482Z,1025.67
2019-01-04T05:17:50.484Z,1025.64
2019-01-04T05:18:50.499Z,1025.62
2019-01-04T05:19:50.556Z,1025.61
2019-01-04T05:20:50.523Z,1025.57
2019-01-04T05:21:50.527Z,1025.57
2019-01-04T05:22:50.538Z,1025.56
2019-01-04T05:23:50.551Z,1025.58
2019-01-04T05:24:50.565Z,1025.58
2019-01-04T05:25:50.579Z,1025.58
2019-01-04T05:26:50.578Z,1025.63
2019-01-04T05:27:50.592Z,1025.64
2019-01-04T05:28:50.610Z,1025.62
2019-01-04T05:29:50.618Z,1025.66
2019-01-04T05:30:50.632Z,1025.68
2019-01-04T05:31:50.634Z,1025.68
2019-01-04T05:32:50.649Z,1025.71
2019-01-04T05:33:50.661Z,1025.71
2019-01-04T05:34:50.673Z,1025.68
2019-01-04T05:35:50.679Z,1025.63
2019-01-04T05:36:50.689Z,1025.57
2019-01-04T05:37:50.699Z,1025.54
2019-01-04T05:38:50.713Z,1025.53
2019-01-04T05:39:50.715Z,1025.45
2019-01-04T05:40:50.727Z,1025.46
2019-01-04T05:41:50.742Z,1025.41
2019-01-04T05:42:50.768Z,1025.38
2019-01-04T05:43:50.771Z,1025.31
2019-01-04T05:44:50.768Z,1025.32
2019-01-04T05:45:50.781Z,1025.33
2019-01-04T05:46:50.796Z,1025.31
2019-01-04T05:47:50.808Z,1025.35
2019-01-04T05:48:50.822Z,1025.32
2019-01-04T05:49:50.822Z,1025.32
2019-01-04T05:50:50.835Z,1025.29
2019-01-04T05:51:50.851Z,1025.30
2019-01-04T05:52:50.855Z,1025.25
2019-01-04T05:53:50.863Z,1025.25
2019-01-04T05:54:50.880Z,1025.21
2019-01-04T05:55:50.890Z,1025.17
2019-01-04T05:56:50.891Z,1025.11
2019-01-04T05:57:50.904Z,1025.11
2019-01-04T05:58:50.917Z,1025.13
2019-01-04T05:59:50.985Z,1025.10
2019-01-04T06:00:50.946Z,1025.17
2019-01-04T06:01:50.947Z,1025.15
2019-01-04T06:02:50.960Z,1025.10
2019-01-04T06:03:50.971Z,1025.05
2019-01-04T06:04:50.987Z,1025.06
2019-01-04T06:05:50.987Z,1025.07
2019-01-04T06:06:51.017Z,1025.07
2019-01-04T06:07:51.016Z,1025.08
2019-01-04T06:08:51.026Z,1025.13
2019-01-04T06:09:51.029Z,1025.11
2019-01-04T06:10:51.041Z,1025.13
2019-01-04T06:11:51.053Z,1025.15
2019-01-04T06:12:51.070Z,1025.15
2019-01-04T06:13:51.081Z,1025.13
2019-01-04T06:14:51.081Z,1025.13
2019-01-04T06:15:51.094Z,1025.13
2019-01-04T06:16:51.108Z,1025.10
2019-01-04T06:17:51.121Z,1025.10
2019-01-04T06:18:51.135Z,1025.05
2019-01-04T06:19:51.135Z,1025.04
2019-01-04T06:20:51.149Z,1025.02
2019-01-04T06:21:51.178Z,1025.00
2019-01-04T06:22:51.175Z,1024.96
2019-01-04T06:23:51.176Z,1024.93
2019-01-04T06:24:51.189Z,1024.92
2019-01-04T06:25:51.212Z,1024.89
2019-01-04T06:26:51.215Z,1024.90
2019-01-04T06:27:51.530Z,1024.85
2019-01-04T06:28:51.231Z,1024.85
2019-01-04T06:29:51.243Z,1024.76
2019-01-04T06:30:51.257Z,1024.76
2019-01-04T06:31:51.270Z,1024.79
2019-01-04T06:32:51.719Z,1024.82
2019-01-04T06:33:51.284Z,1024.85
2019-01-04T06:34:51.298Z,1024.88
2019-01-04T06:35:51.312Z,1024.85
2019-01-04T06:36:51.324Z,1024.80
2019-01-04T06:37:51.324Z,1024.84
2019-01-04T06:38:51.339Z,1024.88
2019-01-04T06:39:51.352Z,1024.89
2019-01-04T06:40:51.366Z,1024.86
2019-01-04T06:41:51.377Z,1024.91
2019-01-04T06:42:51.381Z,1024.87
2019-01-04T06:43:51.393Z,1024.88
2019-01-04T06:44:51.418Z,1024.84
2019-01-04T06:45:51.421Z,1024.83
2019-01-04T06:46:51.422Z,1024.80
2019-01-04T06:47:51.435Z,1024.83
2019-01-04T06:48:51.447Z,1024.79
2019-01-04T06:49:51.461Z,1024.83
2019-01-04T06:50:51.476Z,1024.82
2019-01-04T06:51:51.474Z,1024.78
2019-01-04T06:52:51.487Z,1024.73
2019-01-04T06:53:51.501Z,1024.81
2019-01-04T06:54:51.514Z,1024.80
2019-01-04T06:55:51.515Z,1024.75
2019-01-04T06:56:51.529Z,1024.76
2019-01-04T06:57:51.577Z,1024.78
2019-01-04T06:58:51.557Z,1024.75
2019-01-04T06:59:51.569Z,1024.72
2019-01-04T07:00:51.574Z,1024.69
2019-01-04T07:01:51.584Z,1024.69
2019-01-04T07:02:51.595Z,1024.70
2019-01-04T07:03:51.609Z,1024.68
2019-01-04T07:04:51.610Z,1024.62
2019-01-04T07:05:51.623Z,1024.57
2019-01-04T07:06:51.637Z,1024.62
2019-01-04T07:07:51.664Z,1024.66
2019-01-04T07:08:51.651Z,1024.68
2019-01-04T07:09:51.664Z,1024.69
2019-01-04T07:10:51.678Z,1024.70
2019-01-04T07:11:51.691Z,1024.68
2019-01-04T07:12:51.704Z,1024.65
2019-01-04T07:13:51.704Z,1024.62
2019-01-04T07:14:51.719Z,1024.63
2019-01-04T07:15:51.731Z,1024.60
2019-01-04T07:16:51.745Z,1024.63
2019-01-04T07:17:51.746Z,1024.60
2019-01-04T07:18:51.759Z,1024.57
2019-01-04T07:19:51.773Z,1024.57
2019-01-04T07:20:51.785Z,1024.50
2019-01-04T07:21:51.799Z,1024.48
2019-01-04T07:22:51.802Z,1024.46
2019-01-04T07:23:51.813Z,1024.40
2019-01-04T07:24:51.830Z,1024.40
2019-01-04T07:25:51.841Z,1024.40
2019-01-04T07:26:51.841Z,1024.38
2019-01-04T07:27:51.854Z,1024.38
2019-01-04T07:28:51.880Z,1024.36
2019-01-04T07:29:51.881Z,1024.36
2019-01-04T07:30:51.894Z,1024.32
2019-01-04T07:31:51.894Z,1024.37
2019-01-04T07:32:51.908Z,1024.36
2019-01-04T07:33:51.921Z,1024.39
2019-01-04T07:34:51.935Z,1024.34
2019-01-04T07:35:51.936Z,1024.35
2019-01-04T07:36:51.949Z,1024.40
2019-01-04T07:37:51.964Z,1024.39
2019-01-04T07:38:51.975Z,1024.43
2019-01-04T07:39:51.990Z,1024.34
2019-01-04T07:40:51.992Z,1024.28
2019-01-04T07:41:52.002Z,1024.33
2019-01-04T07:42:52.017Z,1024.30
2019-01-04T07:43:52.030Z,1024.34
2019-01-04T07:44:52.029Z,1024.34
2019-01-04T07:45:52.046Z,1024.32
2019-01-04T07:46:52.059Z,1024.38
2019-01-04T07:47:52.070Z,1024.36
2019-01-04T07:48:52.073Z,1024.38
2019-01-04T07:49:52.084Z,1024.39
2019-01-04T07:50:52.098Z,1024.33
2019-01-04T07:51:52.111Z,1024.31
2019-01-04T07:52:52.125Z,1024.27
2019-01-04T07:53:52.125Z,1024.23
2019-01-04T07:54:52.139Z,1024.26
2019-01-04T07:55:52.153Z,1024.22
2019-01-04T07:56:52.165Z,1024.23
2019-01-04T07:57:52.166Z,1024.21
2019-01-04T07:58:52.180Z,1024.17
2019-01-04T07:59:52.193Z,1024.16
2019-01-04T08:00:52.207Z,1024.08
2019-01-04T08:01:52.219Z,1024.08
2019-01-04T08:02:52.220Z,1024.11
2019-01-04T08:03:52.235Z,1024.10
2019-01-04T08:04:52.249Z,1024.08
2019-01-04T08:05:52.264Z,1024.07
2019-01-04T08:06:52.262Z,1024.06
2019-01-04T08:07:52.273Z,1024.05
2019-01-04T08:08:52.320Z,1024.03
2019-01-04T08:09:52.301Z,1024.02
2019-01-04T08:10:52.315Z,1024.01
2019-01-04T08:11:52.315Z,1023.98
2019-01-04T08:12:52.328Z,1023.96
2019-01-04T08:13:52.342Z,1023.97
2019-01-04T08:14:52.355Z,1023.92
2019-01-04T08:15:52.357Z,1023.89
2019-01-04T08:16:52.370Z,1023.84
2019-01-04T08:17:52.381Z,1023.85
2019-01-04T08:18:52.396Z,1023.80
2019-01-04T08:19:52.409Z,1023.88
2019-01-04T08:20:52.410Z,1023.86
2019-01-04T08:21:52.423Z,1023.86
2019-01-04T08:22:52.436Z,1023.80
2019-01-04T08:23:52.450Z,1023.83
2019-01-04T08:24:52.463Z,1023.81
2019-01-04T08:25:52.465Z,1023.80
2019-01-04T08:26:52.478Z,1023.81
2019-01-04T08:27:52.490Z,1023.87
2019-01-04T08:28:52.504Z,1023.84
2019-01-04T08:29:52.505Z,1023.84
2019-01-04T08:30:52.518Z,1023.87
2019-01-04T08:31:52.534Z,1023.82
2019-01-04T08:32:52.545Z,1023.82
2019-01-04T08:33:52.559Z,1023.77
2019-01-04T08:34:52.560Z,1023.78
2019-01-04T08:35:52.572Z,1023.76
2019-01-04T08:36:52.587Z,1023.79
2019-01-04T08:37:52.602Z,1023.78
2019-01-04T08:38:52.615Z,1023.80
2019-01-04T08:39:52.617Z,1023.77
2019-01-04T08:40:52.627Z,1023.74
2019-01-04T08:41:52.643Z,1023.81
2019-01-04T08:42:52.655Z,1023.79
2019-01-04T08:43:52.671Z,1023.76
2019-01-04T08:44:52.670Z,1023.73
2019-01-04T08:45:52.686Z,1023.75
2019-01-04T08:46:52.696Z,1023.71
2019-01-04T08:47:52.721Z,1023.64
2019-01-04T08:48:52.711Z,1023.59
2019-01-04T08:49:52.732Z,1023.61
2019-01-04T08:50:52.737Z,1023.66
2019-01-04T08:51:52.751Z,1023.66
2019-01-04T08:52:52.777Z,1023.64
2019-01-04T08:53:52.779Z,1023.63
2019-01-04T08:54:52.779Z,1023.62
2019-01-04T08:55:52.792Z,1023.66
2019-01-04T08:56:52.806Z,1023.66
2019-01-04T08:57:52.821Z,1023.69
2019-01-04T08:58:52.821Z,1023.59
2019-01-04T08:59:52.835Z,1023.72
2019-01-04T09:00:52.847Z,1023.74
2019-01-04T09:01:52.863Z,1023.72
2019-01-04T09:02:52.875Z,1023.69
2019-01-04T09:03:52.876Z,1023.60
2019-01-04T09:04:52.890Z,1023.59
2019-01-04T09:05:52.903Z,1023.62
2019-01-04T09:06:52.919Z,1023.58
2019-01-04T09:07:52.930Z,1023.54
2019-01-04T09:08:52.931Z,1023.53
2019-01-04T09:09:52.944Z,1023.48
2019-01-04T09:10:52.958Z,1023.38
2019-01-04T09:11:52.973Z,1023.36
2019-01-04T09:12:52.986Z,1023.30
2019-01-04T09:13:52.998Z,1023.31
2019-01-04T09:14:53.000Z,1023.28
2019-01-04T09:15:53.012Z,1023.28
2019-01-04T09:16:53.027Z,1023.23
2019-01-04T09:17:53.042Z,1023.28
2019-01-04T09:18:53.054Z,1023.23
2019-01-04T09:19:53.055Z,1023.19
2019-01-04T09:20:53.068Z,1023.22
2019-01-04T09:21:53.082Z,1023.20
2019-01-04T09:22:53.095Z,1023.19
2019-01-04T09:23:53.109Z,1023.15
2019-01-04T09:24:53.111Z,1023.17
2019-01-04T09:25:53.123Z,1023.12
2019-01-04T09:26:53.137Z,1023.15
2019-01-04T09:27:53.152Z,1023.12
2019-01-04T09:28:53.164Z,1023.15
2019-01-04T09:29:53.165Z,1023.07
2019-01-04T09:30:53.178Z,1023.12
2019-01-04T09:31:53.193Z,1023.17
2019-01-04T09:32:53.205Z,1023.09
2019-01-04T09:33:53.220Z,1023.16
2019-01-04T09:34:53.233Z,1023.09
2019-01-04T09:35:53.234Z,1023.09
2019-01-04T09:36:53.248Z,1023.05
2019-01-04T09:37:53.262Z,1023.02
2019-01-04T09:38:53.275Z,1022.95
2019-01-04T09:39:53.287Z,1022.90
2019-01-04T09:40:53.303Z,1022.90
2019-01-04T09:41:53.303Z,1022.91
2019-01-04T09:42:53.315Z,1022.93
2019-01-04T09:43:53.331Z,1022.85
2019-01-04T09:44:53.342Z,1022.80
2019-01-04T09:45:53.357Z,1022.80
2019-01-04T09:46:53.370Z,1022.73
2019-01-04T09:47:53.370Z,1022.75
2019-01-04T09:48:53.384Z,1022.74
2019-01-04T09:49:53.399Z,1022.67
2019-01-04T09:50:53.411Z,1022.63
2019-01-04T09:51:53.429Z,1022.56
2019-01-04T09:52:53.428Z,1022.65
2019-01-04T09:53:53.439Z,1022.58
2019-01-04T09:54:53.465Z,1022.55
2019-01-04T09:55:53.467Z,1022.52
2019-01-04T09:56:53.480Z,1022.52
2019-01-04T09:57:53.494Z,1022.54
2019-01-04T09:58:53.498Z,1022.50
2019-01-04T09:59:53.508Z,1022.51
2019-01-04T10:00:53.522Z,1022.43
2019-01-04T10:01:53.535Z,1022.46
2019-01-04T10:02:53.552Z,1022.50
2019-01-04T10:03:53.565Z,1022.44
2019-01-04T10:04:53.563Z,1022.46
2019-01-04T10:05:53.578Z,1022.43
2019-01-04T10:06:53.590Z,1022.46
2019-01-04T10:07:53.604Z,1022.38
2019-01-04T10:08:53.617Z,1022.40
2019-01-04T10:09:53.632Z,1022.29
2019-01-04T10:10:53.632Z,1022.31
2019-01-04T10:11:53.646Z,1022.28
2019-01-04T10:12:53.663Z,1022.25
2019-01-04T10:13:53.676Z,1022.25
2019-01-04T10:14:53.687Z,1022.20
2019-01-04T10:15:53.713Z,1022.18
2019-01-04T10:16:53.701Z,1022.18
2019-01-04T10:17:53.717Z,1022.17
2019-01-04T10:18:53.727Z,1022.12
2019-01-04T10:19:53.745Z,1022.13
2019-01-04T10:20:53.756Z,1022.10
2019-01-04T10:21:53.768Z,1022.08
2019-01-04T10:22:53.770Z,1022.02
2019-01-04T10:23:53.782Z,1022.00
2019-01-04T10:24:53.797Z,1022.00
2019-01-04T10:25:53.810Z,1022.04
2019-01-04T10:26:53.827Z,1022.02
2019-01-04T10:27:53.836Z,1021.98
2019-01-04T10:28:53.838Z,1021.91
2019-01-04T10:29:53.856Z,1021.96
2019-01-04T10:30:53.865Z,1021.86
2019-01-04T10:31:53.879Z,1021.83
2019-01-04T10:32:53.891Z,1021.84
2019-01-04T10:33:53.906Z,1021.79
2019-01-04T10:34:53.908Z,1021.74
2019-01-04T10:35:53.921Z,1021.78
2019-01-04T10:36:53.935Z,1021.71
2019-01-04T10:37:53.947Z,1021.61
2019-01-04T10:38:53.961Z,1021.60
2019-01-04T10:39:53.974Z,1021.53
2019-01-04T10:40:53.996Z,1021.57
2019-01-04T10:41:53.990Z,1021.51
2019-01-04T10:42:54.002Z,1021.43
2019-01-04T10:43:54.016Z,1021.44
2019-01-04T10:44:54.029Z,1021.45
2019-01-04T10:45:54.043Z,1021.40
2019-01-04T10:46:54.057Z,1021.33
2019-01-04T10:47:54.057Z,1021.33
2019-01-04T10:48:54.071Z,1021.25
2019-01-04T10:49:54.099Z,1021.25
2019-01-04T10:50:54.098Z,1021.17
2019-01-04T10:51:54.111Z,1021.21
2019-01-04T10:52:54.129Z,1021.15
2019-01-04T10:53:54.127Z,1021.08
2019-01-04T10:54:54.140Z,1021.03
2019-01-04T10:55:54.154Z,1020.99
2019-01-04T10:56:54.167Z,1021.02
2019-01-04T10:57:54.181Z,1020.92
2019-01-04T10:58:54.193Z,1020.97
2019-01-04T10:59:54.196Z,1020.98
2019-01-04T11:00:54.209Z,1020.93
2019-01-04T11:01:54.221Z,1020.90
2019-01-04T11:02:54.250Z,1020.86
2019-01-04T11:03:54.249Z,1020.80
2019-01-04T11:04:54.263Z,1020.81
2019-01-04T11:05:54.278Z,1020.80
2019-01-04T11:06:54.281Z,1020.81
2019-01-04T11:07:54.295Z,1020.73
2019-01-04T11:08:54.303Z,1020.67
2019-01-04T11:09:54.325Z,1020.68
2019-01-04T11:10:54.330Z,1020.69
2019-01-04T11:11:54.346Z,1020.50
2019-01-04T11:12:54.358Z,1020.57
2019-01-04T11:13:54.360Z,1020.52
2019-01-04T11:14:54.380Z,1020.47
2019-01-04T11:15:54.400Z,1020.40
2019-01-04T11:16:54.400Z,1020.39
2019-01-04T11:17:54.414Z,1020.39
2019-01-04T11:18:54.427Z,1020.41
2019-01-04T11:19:54.440Z,1020.38
2019-01-04T11:20:54.441Z,1020.40
2019-01-04T11:21:54.455Z,1020.45
2019-01-04T11:22:54.469Z,1020.48
2019-01-04T11:23:54.484Z,1020.44
2019-01-04T11:24:54.495Z,1020.43
2019-01-04T11:25:54.511Z,1020.35
2019-01-04T11:26:54.522Z,1020.39
2019-01-04T11:27:54.525Z,1020.36
2019-01-04T11:28:54.537Z,1020.24
2019-01-04T11:29:54.550Z,1020.22
2019-01-04T11:30:54.566Z,1020.12
2019-01-04T11:31:54.577Z,1020.19
2019-01-04T11:32:54.595Z,1020.19
2019-01-04T11:33:54.604Z,1020.12
2019-01-04T11:34:54.606Z,1020.13
2019-01-04T11:35:54.620Z,1020.15
2019-01-04T11:36:54.645Z,1020.06
2019-01-04T11:37:54.646Z,1020.00
2019-01-04T11:38:54.660Z,1019.88
2019-01-04T11:39:54.677Z,1019.84
2019-01-04T11:40:54.687Z,1019.84
2019-01-04T11:41:54.688Z,1019.80
2019-01-04T11:42:54.707Z,1019.76
2019-01-04T11:43:54.716Z,1019.66
2019-01-04T11:44:54.730Z,1019.69
2019-01-04T11:45:54.742Z,1019.62
2019-01-04T11:46:54.756Z,1019.57
2019-01-04T11:47:54.768Z,1019.55
2019-01-04T11:48:54.770Z,1019.61
2019-01-04T11:49:54.785Z,1019.48
2019-01-04T11:50:54.797Z,1019.43
2019-01-04T11:51:54.812Z,1019.36
2019-01-04T11:52:54.826Z,1019.41
2019-01-04T11:53:54.838Z,1019.45
2019-01-04T11:54:54.864Z,1019.45
2019-01-04T11:55:54.869Z,1019.41
2019-01-04T11:56:54.867Z,1019.31
2019-01-04T11:57:54.879Z,1019.30
2019-01-04T11:58:54.895Z,1019.19
2019-01-04T11:59:54.907Z,1019.20
2019-01-04T12:00:54.925Z,1019.15
2019-01-04T12:01:54.933Z,1019.16
2019-01-04T12:02:54.948Z,1019.17
2019-01-04T12:03:54.950Z,1019.21
2019-01-04T12:04:54.961Z,1019.12
2019-01-04T12:05:54.975Z,1019.16